createdAt,value
2022-09-26T00:00:23.701Z,79.85
2022-09-26T00:05:19.971Z,80.40
2022-09-26T00:10:16.523Z,82.47
2022-09-26T00:15:12.780Z,81.40
2022-09-26T00:20:10.024Z,84.00
2022-09-26T00:25:06.717Z,81.43
2022-09-26T00:30:03.143Z,81.32
2022-09-26T00:34:59.383Z,76.05
2022-09-26T00:39:55.585Z,75.93
2022-09-26T00:44:56.587Z,75.55
2022-09-26T00:49:56.366Z,74.70
2022-09-26T00:54:54.756Z,73.63
2022-09-26T00:59:54.474Z,79.05
2022-09-26T01:10:03.861Z,77.55
2022-09-26T01:15:00.150Z,75.40
2022-09-26T01:20:07.994Z,73.72
2022-09-26T01:25:22.848Z,75.82
2022-09-26T01:30:28.594Z,74.47
2022-09-26T01:35:34.460Z,76.38
2022-09-26T01:40:37.630Z,78.13
2022-09-26T01:45:45.161Z,75.38
2022-09-26T01:50:45.295Z,77.30
2022-09-26T01:56:11.013Z,76.22
2022-09-26T02:01:10.464Z,81.32
2022-09-26T02:06:11.459Z,79.38
2022-09-26T02:11:16.578Z,83.20
2022-09-26T02:16:17.658Z,88.78
2022-09-26T02:21:16.397Z,88.82
2022-09-26T02:26:12.735Z,89.18
2022-09-26T02:31:09.696Z,89.53
2022-09-26T02:36:08.262Z,80.38
2022-09-26T02:41:07.620Z,89.63
2022-09-26T02:46:19.117Z,82.03
2022-09-26T02:51:33.797Z,79.60
2022-09-26T02:56:38.329Z,85.72
2022-09-26T03:01:43.832Z,82.93
2022-09-26T03:06:44.324Z,82.32
2022-09-26T03:11:41.636Z,86.47
2022-09-26T03:16:39.331Z,80.22
2022-09-26T03:21:37.146Z,69.18
2022-09-26T03:26:34.653Z,66.88
2022-09-26T03:31:31.437Z,64.55
2022-09-26T03:36:29.163Z,59.28
2022-09-26T03:41:25.627Z,53.53
2022-09-26T03:46:22.136Z,56.50
2022-09-26T03:51:18.431Z,52.75
2022-09-26T03:56:16.269Z,56.47
2022-09-26T04:01:13.891Z,51.45
2022-09-26T04:06:11.072Z,48.97
2022-09-26T04:11:08.898Z,48.38
2022-09-26T04:16:06.206Z,51.60
2022-09-26T04:21:09.761Z,54.03
2022-09-26T04:26:07.821Z,51.72
2022-09-26T04:31:04.949Z,56.05
2022-09-26T04:36:01.763Z,56.90
2022-09-26T04:40:58.702Z,51.63
2022-09-26T04:45:55.060Z,50.97
2022-09-26T04:50:51.305Z,47.15
2022-09-26T04:55:47.905Z,43.67
2022-09-26T05:00:49.527Z,42.78
2022-09-26T05:05:47.367Z,45.15
2022-09-26T05:10:43.942Z,46.13
2022-09-26T05:15:41.500Z,51.88
2022-09-26T05:20:38.380Z,50.03
2022-09-26T05:25:57.236Z,49.75
2022-09-26T05:30:53.514Z,49.40
2022-09-26T05:35:50.803Z,44.08
2022-09-26T05:40:59.178Z,39.45
2022-09-26T05:45:59.511Z,38.05
2022-09-26T05:50:56.005Z,36.90
2022-09-26T05:55:52.300Z,38.00
2022-09-26T06:00:49.203Z,34.45
2022-09-26T06:05:45.427Z,31.08
2022-09-26T06:10:41.617Z,29.42
2022-09-26T06:15:37.836Z,27.30
2022-09-26T06:20:34.278Z,25.08
2022-09-26T06:25:30.599Z,22.92
2022-09-26T06:30:27.038Z,21.98
2022-09-26T06:35:23.330Z,19.73
2022-09-26T06:40:19.581Z,19.25
2022-09-26T06:45:16.209Z,19.27
2022-09-26T06:50:12.711Z,18.50
2022-09-26T06:55:09.380Z,18.88
2022-09-26T07:00:06.918Z,18.80
2022-09-26T07:05:05.380Z,19.30
2022-09-26T07:10:01.628Z,18.48
2022-09-26T07:15:00.365Z,19.35
2022-09-26T07:19:56.563Z,18.20
2022-09-26T07:24:52.831Z,18.38
2022-09-26T07:29:49.440Z,18.42
2022-09-26T07:34:45.669Z,17.52
2022-09-26T07:39:42.071Z,17.80
2022-09-26T07:45:19.599Z,20.67
2022-09-26T07:50:14.444Z,21.35
2022-09-26T07:55:12.215Z,20.50
2022-09-26T08:00:12.840Z,20.60
2022-09-26T08:05:10.105Z,19.65
2022-09-26T08:10:07.252Z,20.80
2022-09-26T08:15:07.360Z,21.17
2022-09-26T08:20:03.769Z,23.38
2022-09-26T08:25:00.175Z,21.45
2022-09-26T08:29:56.587Z,22.65
2022-09-26T08:34:52.943Z,22.63
2022-09-26T08:39:49.311Z,20.75
2022-09-26T08:45:24.501Z,19.55
2022-09-26T08:50:25.095Z,20.25
2022-09-26T08:55:23.931Z,19.58
2022-09-26T09:00:21.657Z,18.52
2022-09-26T09:05:20.908Z,19.48
2022-09-26T09:10:18.801Z,18.40
2022-09-26T09:15:34.011Z,19.92
2022-09-26T09:20:38.369Z,17.83
2022-09-26T09:25:46.568Z,17.10
2022-09-26T09:30:45.271Z,16.27
2022-09-26T09:35:44.700Z,16.95
2022-09-26T09:40:55.478Z,16.45
2022-09-26T09:45:52.453Z,15.70
2022-09-26T09:50:56.028Z,15.25
2022-09-26T09:56:02.745Z,15.95
2022-09-26T10:01:15.407Z,15.75
2022-09-26T10:06:45.693Z,15.13
2022-09-26T10:11:31.821Z,15.25
2022-09-26T10:16:28.158Z,12.02
2022-09-26T10:21:30.958Z,12.60
2022-09-26T10:31:39.964Z,12.40
2022-09-26T10:36:40.209Z,11.02
2022-09-26T10:41:40.320Z,10.35
2022-09-26T10:46:36.590Z,10.38
2022-09-26T10:51:33.577Z,10.60
2022-09-26T10:56:32.994Z,10.32
2022-09-26T11:01:31.319Z,10.60
2022-09-26T11:06:43.951Z,10.02
2022-09-26T11:11:40.340Z,10.25
2022-09-26T11:16:45.429Z,9.45
2022-09-26T11:21:41.606Z,11.40
2022-09-26T11:26:51.132Z,10.90
2022-09-26T11:31:47.350Z,10.98
2022-09-26T11:36:56.767Z,11.30
2022-09-26T11:42:03.978Z,12.32
2022-09-26T11:47:19.089Z,14.52
2022-09-26T11:52:23.899Z,14.73
2022-09-26T11:57:32.868Z,15.85
2022-09-26T12:02:32.978Z,19.52
2022-09-26T12:07:44.282Z,19.73
2022-09-26T12:13:01.120Z,22.67
2022-09-26T12:18:03.294Z,28.33
2022-09-26T12:23:18.179Z,30.77
2022-09-26T12:28:26.922Z,42.95
2022-09-26T12:33:32.912Z,41.85
2022-09-26T12:38:47.525Z,35.83
2022-09-26T12:43:53.087Z,33.97
2022-09-26T12:49:09.619Z,31.08
2022-09-26T12:54:12.030Z,30.25
2022-09-26T12:59:22.786Z,28.00
2022-09-26T13:04:22.004Z,29.73
2022-09-26T13:09:33.207Z,29.50
2022-09-26T13:14:48.320Z,32.70
2022-09-26T13:19:55.202Z,34.20
2022-09-26T13:24:54.659Z,37.92
2022-09-26T13:29:57.713Z,41.65
2022-09-26T13:35:09.895Z,39.22
2022-09-26T13:40:16.289Z,38.53
2022-09-26T13:45:23.678Z,37.40
2022-09-26T13:50:26.181Z,36.55
2022-09-26T13:55:22.551Z,32.03
2022-09-26T14:00:23.226Z,29.80
2022-09-26T14:05:19.397Z,28.45
2022-09-26T14:10:20.600Z,27.42
2022-09-26T14:15:16.894Z,26.30
2022-09-26T14:20:20.007Z,31.70
2022-09-26T14:25:48.540Z,34.85
2022-09-26T14:31:04.809Z,40.38
2022-09-26T14:36:18.435Z,45.83
2022-09-26T14:41:18.245Z,51.20
2022-09-26T14:46:25.304Z,56.28
2022-09-26T14:51:24.879Z,65.05
2022-09-26T14:56:30.036Z,65.75
2022-09-26T15:01:37.266Z,69.45
2022-09-26T15:06:41.803Z,67.30
2022-09-26T15:11:56.721Z,69.85
2022-09-26T15:16:54.922Z,71.05
2022-09-26T15:21:55.636Z,71.85
2022-09-26T15:26:52.422Z,75.80
2022-09-26T15:31:48.971Z,72.30
2022-09-26T15:36:48.263Z,74.85
2022-09-26T15:42:03.498Z,74.35
2022-09-26T15:47:00.253Z,75.70
2022-09-26T15:51:56.823Z,80.00
2022-09-26T15:56:54.896Z,83.85
2022-09-26T16:01:52.089Z,84.22
2022-09-26T16:06:57.579Z,87.32
2022-09-26T16:11:56.241Z,86.05
2022-09-26T16:17:09.717Z,89.60
2022-09-26T16:22:23.174Z,89.22
2022-09-26T16:27:23.826Z,89.88
2022-09-26T16:32:20.984Z,90.88
2022-09-26T16:37:22.885Z,91.80
2022-09-26T16:42:20.556Z,92.17
2022-09-26T16:47:40.046Z,93.30
2022-09-26T16:52:36.322Z,90.88
2022-09-26T16:57:34.030Z,92.70
2022-09-26T17:02:30.502Z,95.00
2022-09-26T17:07:26.913Z,95.43
2022-09-26T17:12:23.114Z,93.85
2022-09-26T17:17:25.163Z,98.55
2022-09-26T17:22:22.629Z,95.32
2022-09-26T17:27:25.595Z,92.00
2022-09-26T17:32:28.150Z,92.78
2022-09-26T17:37:24.362Z,90.20
2022-09-26T17:42:21.236Z,85.03
2022-09-26T17:47:18.649Z,85.35
2022-09-26T17:52:29.167Z,80.65
2022-09-26T17:57:29.795Z,73.45
2022-09-26T18:02:29.053Z,72.72
2022-09-26T18:07:31.093Z,68.72
2022-09-26T18:12:27.365Z,77.83
2022-09-26T18:17:23.692Z,73.60
2022-09-26T18:22:22.835Z,72.22
2022-09-26T18:27:19.116Z,75.40
2022-09-26T18:32:25.903Z,71.88
2022-09-26T18:37:22.180Z,75.38
2022-09-26T18:42:22.215Z,74.55
2022-09-26T18:47:18.530Z,72.55
2022-09-26T18:52:15.778Z,78.88
2022-09-26T18:57:30.878Z,74.40
2022-09-26T19:02:36.586Z,75.00
2022-09-26T19:07:33.288Z,72.38
2022-09-26T19:12:31.411Z,80.18
2022-09-26T19:17:27.645Z,76.35
2022-09-26T19:22:24.095Z,80.97
2022-09-26T19:27:20.387Z,81.82
2022-09-26T19:32:18.685Z,81.30
2022-09-26T19:37:15.157Z,85.40
2022-09-26T19:42:11.491Z,86.75
2022-09-26T19:47:17.987Z,80.80
2022-09-26T19:52:15.795Z,89.70
2022-09-26T19:57:14.324Z,95.10
2022-09-26T20:02:17.843Z,89.65
2022-09-26T20:07:15.563Z,91.53
2022-09-26T20:12:12.200Z,87.13
2022-09-26T20:17:14.761Z,89.75
2022-09-26T20:22:29.147Z,91.95
2022-09-26T20:27:27.927Z,95.55
2022-09-26T20:32:24.216Z,92.32
2022-09-26T20:37:23.340Z,86.38
2022-09-26T20:42:19.864Z,86.30
2022-09-26T20:47:18.161Z,85.97
2022-09-26T20:52:19.131Z,88.82
2022-09-26T20:57:19.536Z,87.28
2022-09-26T21:02:30.037Z,87.55
2022-09-26T21:07:26.387Z,87.00
2022-09-26T21:12:22.951Z,88.25
2022-09-26T21:17:20.901Z,86.55
2022-09-26T21:22:18.542Z,88.68
2022-09-26T21:27:15.061Z,90.53
2022-09-26T21:32:14.338Z,87.35
2022-09-26T21:37:10.608Z,87.95
2022-09-26T21:42:07.148Z,88.95
2022-09-26T21:47:03.382Z,89.55
2022-09-26T21:52:21.413Z,86.57
2022-09-26T21:57:25.471Z,89.50
2022-09-26T22:02:21.844Z,86.13
2022-09-26T22:07:18.372Z,90.72
2022-09-26T22:12:14.592Z,86.25
2022-09-26T22:17:10.950Z,90.55
2022-09-26T22:22:07.574Z,91.75
2022-09-26T22:27:04.423Z,90.13
2022-09-26T22:32:01.304Z,94.40
2022-09-26T22:36:57.527Z,92.65
2022-09-26T22:41:53.821Z,87.93
2022-09-26T22:46:50.085Z,96.00
2022-09-26T22:51:46.301Z,92.35
2022-09-26T22:56:42.654Z,94.25
2022-09-26T23:01:38.972Z,93.63
2022-09-26T23:06:35.221Z,94.18
2022-09-26T23:11:31.518Z,92.07
2022-09-26T23:16:28.697Z,96.75
2022-09-26T23:21:26.503Z,93.65
2022-09-26T23:26:24.072Z,93.70
2022-09-26T23:31:20.557Z,91.45
2022-09-26T23:36:16.889Z,92.47
2022-09-26T23:41:14.838Z,94.30
2022-09-26T23:46:11.379Z,92.43
2022-09-26T23:51:08.119Z,93.25
2022-09-26T23:56:04.603Z,94.15
